createdAt,value
2023-10-17T00:02:11.901Z,5.53
2023-10-17T00:04:43.125Z,5.60
2023-10-17T00:07:14.093Z,5.55
2023-10-17T00:09:43.667Z,5.28
2023-10-17T00:12:27.350Z,5.20
2023-10-17T00:15:02.169Z,5.05
2023-10-17T00:17:30.671Z,4.88
2023-10-17T00:19:59.472Z,5.20
2023-10-17T00:22:29.821Z,5.03
2023-10-17T00:25:09.247Z,5.00
2023-10-17T00:27:37.628Z,4.60
2023-10-17T00:30:08.550Z,4.90
2023-10-17T00:32:42.656Z,5.10
2023-10-17T00:35:15.002Z,4.80
2023-10-17T00:37:52.564Z,4.50
2023-10-17T00:40:45.940Z,5.28
2023-10-17T00:43:14.303Z,4.13
2023-10-17T00:45:43.117Z,4.45
2023-10-17T00:48:18.988Z,4.57
2023-10-17T00:50:49.900Z,5.03
2023-10-17T00:53:21.507Z,4.45
2023-10-17T00:55:56.606Z,4.47
2023-10-17T00:58:25.917Z,4.05
2023-10-17T01:01:10.773Z,4.63
2023-10-17T01:03:44.628Z,4.93
2023-10-17T01:06:25.247Z,5.32
2023-10-17T01:08:56.054Z,4.63
2023-10-17T01:11:29.263Z,4.63
2023-10-17T01:13:58.887Z,4.47
2023-10-17T01:16:27.617Z,4.18
2023-10-17T01:18:57.377Z,4.95
2023-10-17T01:21:27.668Z,4.90
2023-10-17T01:23:57.458Z,4.68
2023-10-17T01:26:29.766Z,4.72
2023-10-17T01:28:58.119Z,4.70
2023-10-17T01:31:26.864Z,4.05
2023-10-17T01:33:57.055Z,4.60
2023-10-17T01:36:25.840Z,5.32
2023-10-17T01:38:56.092Z,5.25
2023-10-17T01:41:26.545Z,5.03
2023-10-17T01:43:54.963Z,5.07
2023-10-17T01:46:23.930Z,5.45
2023-10-17T01:48:55.690Z,5.18
2023-10-17T01:51:25.671Z,5.75
2023-10-17T01:53:54.504Z,5.78
2023-10-17T01:56:27.027Z,4.70
2023-10-17T01:59:00.879Z,4.55
2023-10-17T02:01:31.449Z,5.82
2023-10-17T02:04:03.755Z,5.50
2023-10-17T02:06:34.258Z,5.05
2023-10-17T02:09:19.271Z,4.32
2023-10-17T02:11:52.190Z,4.85
2023-10-17T02:14:22.060Z,5.18
2023-10-17T02:16:51.205Z,5.65
2023-10-17T02:19:21.001Z,5.00
2023-10-17T02:21:52.191Z,5.57
2023-10-17T02:24:22.011Z,5.72
2023-10-17T02:26:57.764Z,5.43
2023-10-17T02:29:30.536Z,4.68
2023-10-17T02:32:00.104Z,5.10
2023-10-17T02:34:31.285Z,5.25
2023-10-17T02:37:01.852Z,5.15
2023-10-17T02:39:30.413Z,5.63
2023-10-17T02:42:08.442Z,5.15
2023-10-17T02:44:45.125Z,5.78
2023-10-17T02:47:14.192Z,5.40
2023-10-17T02:49:45.079Z,6.15
2023-10-17T02:52:18.346Z,5.18
2023-10-17T02:54:57.770Z,5.60
2023-10-17T02:57:28.471Z,5.80
2023-10-17T03:00:10.216Z,5.40
2023-10-17T03:02:39.090Z,5.38
2023-10-17T03:05:13.326Z,5.22
2023-10-17T03:07:43.870Z,5.30
2023-10-17T03:10:21.700Z,5.20
2023-10-17T03:12:55.606Z,5.30
2023-10-17T03:15:30.780Z,4.65
2023-10-17T03:18:02.380Z,4.60
2023-10-17T03:20:42.489Z,5.00
2023-10-17T03:23:10.497Z,4.80
2023-10-17T03:25:40.780Z,5.05
2023-10-17T03:28:10.166Z,5.18
2023-10-17T03:30:40.173Z,5.40
2023-10-17T03:33:10.011Z,5.60
2023-10-17T03:35:47.097Z,5.72
2023-10-17T03:38:16.703Z,5.40
2023-10-17T03:40:53.267Z,5.97
2023-10-17T03:43:23.692Z,6.50
2023-10-17T03:45:58.182Z,6.03
2023-10-17T03:48:30.303Z,5.10
2023-10-17T03:51:10.289Z,5.10
2023-10-17T03:53:46.178Z,5.32
2023-10-17T03:56:24.307Z,5.70
2023-10-17T03:58:58.449Z,5.90
2023-10-17T04:01:28.878Z,7.15
2023-10-17T04:03:58.211Z,8.27
2023-10-17T04:06:40.769Z,7.13
2023-10-17T04:09:22.463Z,6.72
2023-10-17T04:11:54.491Z,7.18
2023-10-17T04:14:30.847Z,8.40
2023-10-17T04:17:00.637Z,7.72
2023-10-17T04:19:31.846Z,7.38
2023-10-17T04:22:20.520Z,7.10
2023-10-17T04:24:51.170Z,8.50
2023-10-17T04:27:24.040Z,8.05
2023-10-17T04:29:52.744Z,6.40
2023-10-17T04:32:22.506Z,6.60
2023-10-17T04:34:50.961Z,6.25
2023-10-17T04:37:25.955Z,6.40
2023-10-17T04:39:58.456Z,4.95
2023-10-17T04:42:48.212Z,5.70
2023-10-17T04:45:15.634Z,6.05
2023-10-17T04:47:47.044Z,5.95
2023-10-17T04:50:14.450Z,5.30
2023-10-17T04:52:43.965Z,5.75
2023-10-17T04:55:19.855Z,5.85
2023-10-17T04:57:57.572Z,6.28
2023-10-17T05:00:43.762Z,6.00
2023-10-17T05:03:28.228Z,6.22
2023-10-17T05:06:16.894Z,6.10
2023-10-17T05:09:02.032Z,5.85
2023-10-17T05:11:48.227Z,6.68
2023-10-17T05:14:34.184Z,5.90
2023-10-17T05:17:19.931Z,6.75
2023-10-17T05:20:07.100Z,6.78
2023-10-17T05:22:52.912Z,6.07
2023-10-17T05:25:41.929Z,6.07
2023-10-17T05:28:27.719Z,5.75
2023-10-17T05:31:13.409Z,5.93
2023-10-17T05:33:58.976Z,5.50
2023-10-17T05:36:45.969Z,7.28
2023-10-17T05:39:31.841Z,6.22
2023-10-17T05:42:17.494Z,5.78
2023-10-17T05:45:03.216Z,5.53
2023-10-17T05:47:54.090Z,5.80
2023-10-17T05:50:39.886Z,5.85
2023-10-17T05:53:23.429Z,6.22
2023-10-17T05:56:09.831Z,5.78
2023-10-17T05:58:55.579Z,5.35
2023-10-17T06:01:41.657Z,6.00
2023-10-17T06:04:27.499Z,6.47
2023-10-17T06:07:13.409Z,8.02
2023-10-17T06:10:00.754Z,8.23
2023-10-17T06:12:46.605Z,5.75
2023-10-17T06:15:32.362Z,5.35
2023-10-17T06:18:02.795Z,5.68
2023-10-17T06:20:45.037Z,5.05
2023-10-17T06:23:25.491Z,5.63
2023-10-17T06:26:06.752Z,5.85
2023-10-17T06:28:36.748Z,6.20
2023-10-17T06:31:30.145Z,6.00
2023-10-17T06:34:01.916Z,6.18
2023-10-17T06:36:30.029Z,5.82
2023-10-17T06:38:59.150Z,6.25
2023-10-17T06:41:39.152Z,6.60
2023-10-17T06:44:09.507Z,7.90
2023-10-17T06:46:49.684Z,7.23
2023-10-17T06:49:31.627Z,6.50
2023-10-17T06:52:11.792Z,7.38
2023-10-17T06:54:42.408Z,8.50
2023-10-17T06:57:20.376Z,7.82
2023-10-17T06:59:51.866Z,8.57
2023-10-17T07:02:29.260Z,8.40
2023-10-17T07:05:01.256Z,7.78
2023-10-17T07:07:32.919Z,8.45
2023-10-17T07:10:17.754Z,10.02
2023-10-17T07:12:51.824Z,8.35
2023-10-17T07:15:21.125Z,8.02
2023-10-17T07:17:55.753Z,9.07
2023-10-17T07:20:51.090Z,6.90
2023-10-17T07:23:20.762Z,7.15
2023-10-17T07:25:50.636Z,7.00
2023-10-17T07:28:23.573Z,7.50
2023-10-17T07:30:59.325Z,7.00
2023-10-17T07:33:27.883Z,6.65
2023-10-17T07:35:57.953Z,6.40
2023-10-17T07:38:29.373Z,6.70
2023-10-17T07:41:10.594Z,7.45
2023-10-17T07:43:45.147Z,9.07
2023-10-17T07:46:18.430Z,7.82
2023-10-17T07:48:50.009Z,7.68
2023-10-17T07:51:18.859Z,7.20
2023-10-17T07:53:48.195Z,7.47
2023-10-17T07:56:22.673Z,7.15
2023-10-17T07:59:00.500Z,7.10
2023-10-17T08:01:33.542Z,8.10
2023-10-17T08:04:15.041Z,5.80
2023-10-17T08:06:43.826Z,6.70
2023-10-17T08:11:56.322Z,6.85
2023-10-17T08:14:33.634Z,6.90
2023-10-17T08:17:01.995Z,6.60
2023-10-17T08:19:37.487Z,6.30
2023-10-17T08:22:18.451Z,7.00
2023-10-17T08:24:52.838Z,6.97
2023-10-17T08:27:35.377Z,6.47
2023-10-17T08:30:19.306Z,6.53
2023-10-17T08:33:11.274Z,7.47
2023-10-17T08:35:40.360Z,6.82
2023-10-17T08:38:08.136Z,6.68
2023-10-17T08:40:42.427Z,7.30
2023-10-17T08:43:12.852Z,6.72
2023-10-17T08:45:45.277Z,6.97
2023-10-17T08:48:13.891Z,8.55
2023-10-17T08:50:42.982Z,11.88
2023-10-17T08:53:15.400Z,7.68
2023-10-17T08:55:43.995Z,7.68
2023-10-17T08:58:12.707Z,7.20
2023-10-17T09:00:56.704Z,8.40
2023-10-17T09:03:30.019Z,8.35
2023-10-17T09:06:07.900Z,9.88
2023-10-17T09:08:53.501Z,8.52
2023-10-17T09:11:34.854Z,17.20
2023-10-17T09:14:18.702Z,8.55
2023-10-17T09:16:52.722Z,10.57
2023-10-17T09:19:26.642Z,8.00
2023-10-17T09:21:55.236Z,9.52
2023-10-17T09:24:37.068Z,9.02
2023-10-17T09:27:12.177Z,8.55
2023-10-17T09:29:48.552Z,9.40
2023-10-17T09:32:35.338Z,8.52
2023-10-17T09:35:15.504Z,8.93
2023-10-17T09:37:45.466Z,10.43
2023-10-17T09:40:15.251Z,8.25
2023-10-17T09:42:46.598Z,10.73
2023-10-17T09:45:32.369Z,8.25
2023-10-17T09:48:08.037Z,8.38
2023-10-17T09:50:38.878Z,8.10
2023-10-17T09:53:16.096Z,8.20
2023-10-17T09:55:49.144Z,8.35
2023-10-17T09:58:22.025Z,7.07
2023-10-17T10:00:54.401Z,7.13
2023-10-17T10:03:29.592Z,7.30
2023-10-17T10:06:22.643Z,7.80
2023-10-17T10:08:51.268Z,6.78
2023-10-17T10:11:19.544Z,7.00
2023-10-17T10:14:05.087Z,6.50
2023-10-17T10:16:50.480Z,6.63
2023-10-17T10:19:20.278Z,5.73
2023-10-17T10:21:56.936Z,6.20
2023-10-17T10:24:28.656Z,6.10
2023-10-17T10:27:21.275Z,7.60
2023-10-17T10:29:54.031Z,5.00
2023-10-17T10:32:34.277Z,4.20
2023-10-17T10:35:06.987Z,6.10
2023-10-17T10:37:50.041Z,5.25
2023-10-17T10:40:25.535Z,4.68
2023-10-17T10:42:55.585Z,5.57
2023-10-17T10:45:33.451Z,4.50
2023-10-17T10:48:02.622Z,4.23
2023-10-17T10:50:34.895Z,3.13
2023-10-17T10:53:04.620Z,3.13
2023-10-17T10:55:33.040Z,7.83
2023-10-17T10:58:05.797Z,4.70
2023-10-17T11:00:34.432Z,4.20
2023-10-17T11:03:02.864Z,5.25
2023-10-17T11:05:34.837Z,7.18
2023-10-17T11:08:03.730Z,7.25
2023-10-17T11:10:32.992Z,6.95
2023-10-17T11:13:03.129Z,6.30
2023-10-17T11:15:33.712Z,6.90
2023-10-17T11:18:08.533Z,5.82
2023-10-17T11:20:41.748Z,5.65
2023-10-17T11:23:13.373Z,5.00
2023-10-17T11:25:45.503Z,5.70
2023-10-17T11:28:17.547Z,6.40
2023-10-17T11:30:46.737Z,6.27
2023-10-17T11:33:19.253Z,5.50
2023-10-17T11:35:52.943Z,4.53
2023-10-17T11:38:43.646Z,6.45
2023-10-17T11:41:16.679Z,5.70
2023-10-17T11:43:52.702Z,5.30
2023-10-17T11:46:30.353Z,5.25
2023-10-17T11:49:24.652Z,5.20
2023-10-17T11:52:00.012Z,3.88
2023-10-17T11:57:14.511Z,5.15
2023-10-17T11:59:56.785Z,3.92
2023-10-17T12:02:25.339Z,4.47
2023-10-17T12:04:54.621Z,4.55
2023-10-17T12:07:24.417Z,4.38
2023-10-17T12:09:55.447Z,4.63
2023-10-17T12:12:24.667Z,5.60
2023-10-17T12:14:54.686Z,3.80
2023-10-17T12:17:24.904Z,3.17
2023-10-17T12:19:53.668Z,4.82
2023-10-17T12:22:23.369Z,2.40
2023-10-17T12:24:51.669Z,2.00
2023-10-17T12:27:21.583Z,1.60
2023-10-17T12:29:50.102Z,1.80
2023-10-17T12:32:18.894Z,1.80
2023-10-17T12:34:47.851Z,1.73
2023-10-17T12:37:18.733Z,1.65
2023-10-17T12:39:48.791Z,2.10
2023-10-17T12:42:17.526Z,1.63
2023-10-17T12:44:45.763Z,1.60
2023-10-17T12:47:14.254Z,1.98
2023-10-17T12:49:45.259Z,1.55
2023-10-17T12:52:17.583Z,1.70
2023-10-17T12:54:50.419Z,1.10
2023-10-17T12:57:20.462Z,1.17
2023-10-17T12:59:48.761Z,0.90
2023-10-17T13:02:16.972Z,1.05
2023-10-17T13:04:48.089Z,0.90
2023-10-17T13:07:17.113Z,0.93
2023-10-17T13:09:45.436Z,0.88
2023-10-17T13:12:15.989Z,0.90
2023-10-17T13:14:44.294Z,0.80
2023-10-17T13:17:14.721Z,0.98
2023-10-17T13:19:44.978Z,0.93
2023-10-17T13:22:18.681Z,0.80
2023-10-17T13:24:49.263Z,1.20
2023-10-17T13:27:21.055Z,0.95
2023-10-17T13:29:51.177Z,2.30
2023-10-17T13:32:19.600Z,1.70
2023-10-17T13:34:48.314Z,2.70
2023-10-17T13:37:16.619Z,2.72
2023-10-17T13:39:44.909Z,2.08
2023-10-17T13:42:14.774Z,2.05
2023-10-17T13:44:45.119Z,2.10
2023-10-17T13:47:13.436Z,1.45
2023-10-17T13:49:41.755Z,1.55
2023-10-17T13:52:19.052Z,1.50
2023-10-17T13:54:50.441Z,1.30
2023-10-17T13:57:18.811Z,1.40
2023-10-17T13:59:54.467Z,1.20
2023-10-17T14:02:26.003Z,1.52
2023-10-17T14:04:54.355Z,1.10
2023-10-17T14:07:22.654Z,1.13
2023-10-17T14:09:56.775Z,1.10
2023-10-17T14:12:25.442Z,1.10
2023-10-17T14:14:55.249Z,1.10
2023-10-17T14:17:23.485Z,1.50
2023-10-17T14:20:06.316Z,1.52
2023-10-17T14:22:45.691Z,1.42
2023-10-17T14:25:15.325Z,1.63
2023-10-17T14:27:42.578Z,1.52
2023-10-17T14:30:13.539Z,1.75
2023-10-17T14:32:40.916Z,1.55
2023-10-17T14:35:10.296Z,1.35
2023-10-17T14:37:41.205Z,1.40
2023-10-17T14:40:13.427Z,1.20
2023-10-17T14:42:46.588Z,1.33
2023-10-17T14:45:16.677Z,1.58
2023-10-17T14:47:44.950Z,1.83
2023-10-17T14:50:15.922Z,1.65
2023-10-17T14:52:44.262Z,1.58
2023-10-17T14:55:16.395Z,1.40
2023-10-17T14:57:46.955Z,1.77
2023-10-17T15:00:17.491Z,1.45
2023-10-17T15:02:46.422Z,2.38
2023-10-17T15:05:14.808Z,2.60
2023-10-17T15:07:45.340Z,2.40
2023-10-17T15:10:17.348Z,3.33
2023-10-17T15:15:21.415Z,4.18
2023-10-17T15:17:52.333Z,4.00
2023-10-17T15:20:20.603Z,3.75
2023-10-17T15:22:49.102Z,3.75
2023-10-17T15:25:19.461Z,3.22
2023-10-17T15:27:48.903Z,9.38
2023-10-17T15:30:34.159Z,5.90
2023-10-17T15:33:04.890Z,5.80
2023-10-17T15:35:34.840Z,3.70
2023-10-17T15:38:03.175Z,4.57
2023-10-17T15:40:31.487Z,3.88
2023-10-17T15:42:59.762Z,3.90
2023-10-17T15:45:28.216Z,4.50
2023-10-17T15:47:56.649Z,4.25
2023-10-17T15:50:26.510Z,3.55
2023-10-17T15:52:54.996Z,4.60
2023-10-17T15:55:26.697Z,5.55
2023-10-17T15:57:55.044Z,4.60
2023-10-17T16:00:23.425Z,4.50
2023-10-17T16:02:51.832Z,5.95
2023-10-17T16:05:20.254Z,4.80
2023-10-17T16:07:49.929Z,4.28
2023-10-17T16:10:18.912Z,4.30
2023-10-17T16:12:48.021Z,4.60
2023-10-17T16:15:22.480Z,4.90
2023-10-17T16:17:53.719Z,4.40
2023-10-17T16:20:22.235Z,4.70
2023-10-17T16:22:55.075Z,4.68
2023-10-17T16:25:25.756Z,5.00
2023-10-17T16:27:54.383Z,4.85
2023-10-17T16:30:22.838Z,4.70
2023-10-17T16:32:54.593Z,5.18
2023-10-17T16:35:23.173Z,5.72
2023-10-17T16:37:52.914Z,5.10
2023-10-17T16:40:24.167Z,5.65
2023-10-17T16:42:52.516Z,6.10
2023-10-17T16:45:21.119Z,7.75
2023-10-17T16:47:50.770Z,7.15
2023-10-17T16:50:20.038Z,9.07
2023-10-17T16:52:48.461Z,7.63
2023-10-17T16:55:20.224Z,10.70
2023-10-17T16:57:51.349Z,8.50
2023-10-17T17:00:20.097Z,6.10
2023-10-17T17:02:48.420Z,6.90
2023-10-17T17:05:16.836Z,7.45
2023-10-17T17:07:45.231Z,5.57
2023-10-17T17:10:20.400Z,5.57
2023-10-17T17:12:54.569Z,5.18
2023-10-17T17:15:23.439Z,5.55
2023-10-17T17:17:56.841Z,6.93
2023-10-17T17:20:33.312Z,7.90
2023-10-17T17:23:06.891Z,8.68
2023-10-17T17:25:39.761Z,11.02
2023-10-17T17:28:11.818Z,6.35
2023-10-17T17:30:43.538Z,5.20
2023-10-17T17:33:12.465Z,5.68
2023-10-17T17:35:40.861Z,6.43
2023-10-17T17:38:22.789Z,5.70
2023-10-17T17:40:52.466Z,5.32
2023-10-17T17:43:20.877Z,5.60
2023-10-17T17:45:52.496Z,4.88
2023-10-17T17:48:20.843Z,7.18
2023-10-17T17:50:50.173Z,10.65
2023-10-17T17:53:24.184Z,9.80
2023-10-17T17:55:53.864Z,8.27
2023-10-17T17:58:25.223Z,9.30
2023-10-17T18:00:55.469Z,7.50
2023-10-17T18:03:24.185Z,6.35
2023-10-17T18:05:52.502Z,6.75
2023-10-17T18:08:20.733Z,7.65
2023-10-17T18:10:53.994Z,5.90
2023-10-17T18:13:29.665Z,6.47
2023-10-17T18:16:01.304Z,5.72
2023-10-17T18:18:38.362Z,7.53
2023-10-17T18:21:08.710Z,6.38
2023-10-17T18:23:38.896Z,7.25
2023-10-17T18:26:17.041Z,7.18
2023-10-17T18:28:50.055Z,5.85
2023-10-17T18:31:22.636Z,6.50
2023-10-17T18:33:56.863Z,6.63
2023-10-17T18:36:25.196Z,8.20
2023-10-17T18:39:03.316Z,8.43
2023-10-17T18:41:32.362Z,8.35
2023-10-17T18:44:02.484Z,8.13
2023-10-17T18:46:30.996Z,8.27
2023-10-17T18:48:59.612Z,7.50
2023-10-17T18:51:28.063Z,8.43
2023-10-17T18:53:56.382Z,6.80
2023-10-17T18:56:24.700Z,7.10
2023-10-17T18:58:53.837Z,7.88
2023-10-17T19:01:23.605Z,10.05
2023-10-17T19:03:53.241Z,10.00
2023-10-17T19:06:21.866Z,9.75
2023-10-17T19:08:50.244Z,9.88
2023-10-17T19:11:18.639Z,9.35
2023-10-17T19:13:53.812Z,9.65
2023-10-17T19:16:29.644Z,8.70
2023-10-17T19:19:05.787Z,8.30
2023-10-17T19:21:42.934Z,7.05
2023-10-17T19:24:14.019Z,7.03
2023-10-17T19:26:45.413Z,6.75
2023-10-17T19:29:14.644Z,7.43
2023-10-17T19:31:48.034Z,6.15
2023-10-17T19:34:16.445Z,7.05
2023-10-17T19:36:45.624Z,6.13
2023-10-17T19:39:16.955Z,7.63
2023-10-17T19:41:46.397Z,7.03
2023-10-17T19:44:14.767Z,6.18
2023-10-17T19:46:47.947Z,6.22
2023-10-17T19:49:17.843Z,6.20
2023-10-17T19:51:53.017Z,5.55
2023-10-17T19:54:21.390Z,6.45
2023-10-17T19:56:49.809Z,5.82
2023-10-17T19:59:18.098Z,5.82
2023-10-17T20:01:48.030Z,6.50
2023-10-17T20:04:16.593Z,5.65
2023-10-17T20:06:45.112Z,6.30
2023-10-17T20:09:16.820Z,6.00
2023-10-17T20:11:46.657Z,5.57
2023-10-17T20:14:15.348Z,5.50
2023-10-17T20:16:44.445Z,5.63
2023-10-17T20:19:15.552Z,5.20
2023-10-17T20:21:43.907Z,4.85
2023-10-17T20:24:13.089Z,4.85
2023-10-17T20:26:41.620Z,5.00
2023-10-17T20:29:13.502Z,5.15
2023-10-17T20:31:41.965Z,4.50
2023-10-17T20:34:11.266Z,4.70
2023-10-17T20:36:41.080Z,4.63
2023-10-17T20:39:09.402Z,4.10
2023-10-17T20:41:39.231Z,4.57
2023-10-17T20:44:07.987Z,4.57
2023-10-17T20:46:36.545Z,4.65
2023-10-17T20:49:05.282Z,4.75
2023-10-17T20:51:34.096Z,5.05
2023-10-17T20:54:05.007Z,5.18
2023-10-17T20:56:41.993Z,4.43
2023-10-17T20:59:10.978Z,4.85
2023-10-17T21:01:39.860Z,4.65
2023-10-17T21:04:09.521Z,5.45
2023-10-17T21:06:37.920Z,5.50
2023-10-17T21:09:07.777Z,5.57
2023-10-17T21:11:37.855Z,6.18
2023-10-17T21:14:06.422Z,4.93
2023-10-17T21:16:34.855Z,4.95
2023-10-17T21:19:03.950Z,4.50
2023-10-17T21:21:33.082Z,4.60
2023-10-17T21:24:02.368Z,4.57
2023-10-17T21:26:32.199Z,5.00
2023-10-17T21:29:00.593Z,5.03
2023-10-17T21:31:29.211Z,4.80
2023-10-17T21:33:57.587Z,5.70
2023-10-17T21:36:26.300Z,5.30
2023-10-17T21:38:57.531Z,5.20
2023-10-17T21:41:26.144Z,5.63
2023-10-17T21:43:55.943Z,5.72
2023-10-17T21:46:27.135Z,5.88
2023-10-17T21:48:55.930Z,6.15
2023-10-17T21:51:24.342Z,6.28
2023-10-17T21:53:52.830Z,6.72
2023-10-17T21:56:21.182Z,5.50
2023-10-17T21:58:50.479Z,6.70
2023-10-17T22:01:23.473Z,6.20
2023-10-17T22:03:52.127Z,6.30
2023-10-17T22:06:26.116Z,5.57
2023-10-17T22:08:57.852Z,6.72
2023-10-17T22:11:26.945Z,8.20
2023-10-17T22:13:56.101Z,7.88
2023-10-17T22:16:25.957Z,9.10
2023-10-17T22:18:56.187Z,8.70
2023-10-17T22:21:28.483Z,7.43
2023-10-17T22:23:56.840Z,7.45
2023-10-17T22:26:26.509Z,7.72
2023-10-17T22:28:56.074Z,8.27
2023-10-17T22:31:25.935Z,7.22
2023-10-17T22:34:01.711Z,9.23
2023-10-17T22:36:30.031Z,7.60
2023-10-17T22:38:58.330Z,7.53
2023-10-17T22:41:28.263Z,7.70
2023-10-17T22:43:59.683Z,7.78
2023-10-17T22:46:29.525Z,7.25
2023-10-17T22:48:58.238Z,7.28
2023-10-17T22:51:29.335Z,6.05
2023-10-17T22:54:01.245Z,6.70
2023-10-17T22:56:29.682Z,8.18
2023-10-17T22:58:58.517Z,7.03
2023-10-17T23:01:28.640Z,7.35
2023-10-17T23:03:57.831Z,7.03
2023-10-17T23:06:26.690Z,6.43
2023-10-17T23:08:54.972Z,8.18
2023-10-17T23:11:27.062Z,6.50
2023-10-17T23:13:57.659Z,6.47
2023-10-17T23:16:26.109Z,6.38
2023-10-17T23:18:56.488Z,6.68
2023-10-17T23:21:24.915Z,7.07
2023-10-17T23:23:53.370Z,6.05
2023-10-17T23:26:21.878Z,6.97
2023-10-17T23:28:50.274Z,5.43
2023-10-17T23:31:27.304Z,6.40
2023-10-17T23:34:05.343Z,6.90
2023-10-17T23:36:34.696Z,6.05
2023-10-17T23:39:11.564Z,6.65
2023-10-17T23:41:41.526Z,6.15
2023-10-17T23:44:24.776Z,7.20
2023-10-17T23:46:59.148Z,6.78
2023-10-17T23:49:31.969Z,6.93
2023-10-17T23:52:08.778Z,6.60
2023-10-17T23:54:55.158Z,6.43
2023-10-17T23:57:23.933Z,7.32
2023-10-17T23:59:52.668Z,6.90
